Language: 


Des rapports , des résumés tant et plus, au choix de chacun....


Données Historiques de Météogheer
Journalier Rapport pour Janvier 12, 2018 Unitée:  Les deux    Impériale   Métrique
Suivant Jour »
Journalier Hebdomadaire Mensuel Annuel Sur mesure
  Max: Min: Moyenne:
Température: 47.8 °F /  8.8 °C 39.9 °F /  4.4 °C 43.3 °F /  6.3 °C
Point de rosée: 48.2 °F /  9.0 °C 39.2 °F /  4.0 °C 43.5 °F /  6.4 °C
Humidité: 98% 98% 98%
Vent: 7.8mph /  12.6km/h - 0.8mph /  1.3km/h
Rafales: 7.8mph /  12.6km/h - -
Vent- - SSE
Pression: 30.3 in /  1026.0 hPa 30.2 in /  1021.9 hPa -
Pluie: 0 in /  0.0 mm    
Historical Graphs
 
 
Données tabulaires pour Janvier 12, 2018
Heure Température Point de rosée Pression Vent Vent Rafales Humidité Pluie Taux (Horaire) Conditions
00:00 39.9 °F /  4.4 °C 39.2 °F /  4.0 °C 30.2in /  1022.9hPa Calm   2.5mph /  4.0km/h 98% 0.01in /  0.3mm
00:03 39.9 °F /  4.4 °C 39.2 °F /  4.0 °C 30.2in /  1022.9hPa Calm   2.5mph /  4.0km/h 98% 0.01in /  0.3mm
00:10 40.1 °F /  4.5 °C 41 °F /  5.0 °C 30.2in /  1022.9hPa Calm     98% 0.01in /  0.3mm
00:13 40.1 °F /  4.5 °C 41 °F /  5.0 °C 30.2in /  1022.9hPa Calm   2.7mph /  4.3km/h 98% 0.01in /  0.3mm
00:21 40.1 °F /  4.5 °C 41 °F /  5.0 °C 30.2in /  1022.9hPa Calm   2.7mph /  4.3km/h 98% 0.01in /  0.3mm
00:33 40.1 °F /  4.5 °C 41 °F /  5.0 °C 30.2in /  1021.9hPa Calm     98% 0.01in /  0.3mm
00:40 40.1 °F /  4.5 °C 41 °F /  5.0 °C 30.2in /  1022.9hPa Calm   2.5mph /  4.0km/h 98% 0in /  0.0mm
00:43 40.1 °F /  4.5 °C 41 °F /  5.0 °C 30.2in /  1022.9hPa Calm   2.5mph /  4.0km/h 98% 0in /  0.0mm
00:45 40.1 °F /  4.5 °C 41 °F /  5.0 °C 30.2in /  1022.9hPa Calm   2.5mph /  4.0km/h 98% 0in /  0.0mm
00:50 40.3 °F /  4.6 °C 41 °F /  5.0 °C 30.2in /  1022.9hPa Calm   1.1mph /  1.8km/h 98% 0in /  0.0mm
00:58 40.3 °F /  4.6 °C 41 °F /  5.0 °C 30.2in /  1022.9hPa Calm   2.2mph /  3.5km/h 98% 0in /  0.0mm
01:10 40.3 °F /  4.6 °C 41 °F /  5.0 °C 30.2in /  1022.9hPa Calm   2.2mph /  3.5km/h 98% 0in /  0.0mm
01:25 40.5 °F /  4.7 °C 41 °F /  5.0 °C 30.2in /  1022.9hPa NNW 1.3mph /  2.1km/h 2.2mph /  3.5km/h 98% 0in /  0.0mm
01:31 40.5 °F /  4.7 °C 41 °F /  5.0 °C 30.2in /  1022.9hPa Calm   2.2mph /  3.5km/h 98% 0in /  0.0mm
01:37 40.6 °F /  4.8 °C 41 °F /  5.0 °C 30.2in /  1022.9hPa Calm   3.6mph /  5.8km/h 98% 0in /  0.0mm
01:43 40.6 °F /  4.8 °C 41 °F /  5.0 °C 30.2in /  1022.9hPa NNW 2mph /  3.2km/h 3.6mph /  5.8km/h 98% 0in /  0.0mm
01:48 40.6 °F /  4.8 °C 41 °F /  5.0 °C 30.2in /  1022.9hPa Calm   2.9mph /  4.7km/h 98% 0in /  0.0mm
02:04 41 °F /  5.0 °C 41 °F /  5.0 °C 30.2in /  1023.9hPa Calm   4.3mph /  6.9km/h 98% 0in /  0.0mm
02:21 41.2 °F /  5.1 °C 41 °F /  5.0 °C 30.2in /  1023.9hPa North 4.3mph /  6.9km/h 7.8mph /  12.6km/h 98% 0in /  0.0mm
02:32 41 °F /  5.0 °C 41 °F /  5.0 °C 30.2in /  1023.9hPa Calm   7.6mph /  12.2km/h 98% 0in /  0.0mm
02:38 41 °F /  5.0 °C 41 °F /  5.0 °C 30.2in /  1023.9hPa NNE 0.9mph /  1.4km/h 6.5mph /  10.5km/h 98% 0in /  0.0mm
02:44 41 °F /  5.0 °C 41 °F /  5.0 °C 30.2in /  1023.9hPa Calm   6.5mph /  10.5km/h 98% 0in /  0.0mm
02:56 41 °F /  5.0 °C 41 °F /  5.0 °C 30.2in /  1023.9hPa NE 4.9mph /  7.9km/h 6.3mph /  10.1km/h 98% 0in /  0.0mm
03:08 41.2 °F /  5.1 °C 41 °F /  5.0 °C 30.2in /  1023.9hPa NNE 3.1mph /  5.0km/h 6.5mph /  10.5km/h 98% 0in /  0.0mm
03:21 41.2 °F /  5.1 °C 41 °F /  5.0 °C 30.2in /  1023.9hPa NNE 1.3mph /  2.1km/h 7.4mph /  11.9km/h 98% 0in /  0.0mm
03:29 41.2 °F /  5.1 °C 41 °F /  5.0 °C 30.2in /  1023.9hPa North 3.1mph /  5.0km/h 6.3mph /  10.1km/h 98% 0in /  0.0mm
03:43 41.4 °F /  5.2 °C 41 °F /  5.0 °C 30.2in /  1023.9hPa NNE 2.2mph /  3.5km/h 7.4mph /  11.9km/h 98% 0in /  0.0mm
03:57 41.4 °F /  5.2 °C 41 °F /  5.0 °C 30.2in /  1023.9hPa NNE 3.1mph /  5.0km/h 4mph /  6.4km/h 98% 0in /  0.0mm
04:04 41.4 °F /  5.2 °C 41 °F /  5.0 °C 30.2in /  1023.9hPa Calm   5.6mph /  9.0km/h 98% 0in /  0.0mm
04:14 41.7 °F /  5.4 °C 42.8 °F /  6.0 °C 30.2in /  1023.9hPa Calm   5.8mph /  9.3km/h 98% 0in /  0.0mm
04:27 41.7 °F /  5.4 °C 42.8 °F /  6.0 °C 30.3in /  1024.9hPa Calm   6.3mph /  10.1km/h 98% 0in /  0.0mm
04:37 41.7 °F /  5.4 °C 42.8 °F /  6.0 °C 30.3in /  1024.9hPa North 3.8mph /  6.1km/h 6.5mph /  10.5km/h 98% 0in /  0.0mm
04:46 41.9 °F /  5.5 °C 42.8 °F /  6.0 °C 30.3in /  1024.9hPa NNE 7.8mph /  12.6km/h 7.8mph /  12.6km/h 98% 0in /  0.0mm
04:52 41.9 °F /  5.5 °C 42.8 °F /  6.0 °C 30.3in /  1024.9hPa NNE 5.4mph /  8.7km/h 7.8mph /  12.6km/h 98% 0in /  0.0mm
04:57 41.9 °F /  5.5 °C 42.8 °F /  6.0 °C 30.3in /  1024.9hPa ENE 4.9mph /  7.9km/h 6mph /  9.7km/h 98% 0in /  0.0mm
05:02 41.9 °F /  5.5 °C 42.8 °F /  6.0 °C 30.3in /  1024.9hPa Calm   6mph /  9.7km/h 98% 0in /  0.0mm
05:12 41.9 °F /  5.5 °C 42.8 °F /  6.0 °C 30.3in /  1024.9hPa NNW 4mph /  6.4km/h 5.6mph /  9.0km/h 98% 0in /  0.0mm
05:17 41.9 °F /  5.5 °C 42.8 °F /  6.0 °C 30.3in /  1024.9hPa NNE 3.8mph /  6.1km/h 5.6mph /  9.0km/h 98% 0in /  0.0mm
05:36 42.1 °F /  5.6 °C 42.8 °F /  6.0 °C 30.2in /  1023.9hPa ENE 7.4mph /  11.9km/h 7.4mph /  11.9km/h 98% 0in /  0.0mm
05:44 42.1 °F /  5.6 °C 42.8 °F /  6.0 °C 30.2in /  1023.9hPa NNE 3.6mph /  5.8km/h 7.4mph /  11.9km/h 98% 0in /  0.0mm
05:54 42.1 °F /  5.6 °C 42.8 °F /  6.0 °C 30.2in /  1023.9hPa Calm   4.9mph /  7.9km/h 98% 0in /  0.0mm
06:02 42.1 °F /  5.6 °C 42.8 °F /  6.0 °C 30.2in /  1023.9hPa Calm   2.2mph /  3.5km/h 98% 0in /  0.0mm
06:18 42.1 °F /  5.6 °C 42.8 °F /  6.0 °C 30.3in /  1024.9hPa Calm     98% 0in /  0.0mm
06:30 42.1 °F /  5.6 °C 42.8 °F /  6.0 °C 30.3in /  1024.9hPa Calm   2.9mph /  4.7km/h 98% 0in /  0.0mm
06:37 42.1 °F /  5.6 °C 42.8 °F /  6.0 °C 30.3in /  1024.9hPa Calm   2.9mph /  4.7km/h 98% 0in /  0.0mm
06:42 42.1 °F /  5.6 °C 42.8 °F /  6.0 °C 30.3in /  1024.9hPa Calm     98% 0in /  0.0mm
06:53 42.3 °F /  5.7 °C 42.8 °F /  6.0 °C 30.3in /  1024.9hPa Calm     98% 0in /  0.0mm
07:03 42.3 °F /  5.7 °C 42.8 °F /  6.0 °C 30.3in /  1024.9hPa Calm   0.9mph /  1.4km/h 98% 0in /  0.0mm
07:09 42.3 °F /  5.7 °C 42.8 °F /  6.0 °C 30.3in /  1024.9hPa Calm   0.9mph /  1.4km/h 98% 0in /  0.0mm
07:15 42.3 °F /  5.7 °C 42.8 °F /  6.0 °C 30.3in /  1024.9hPa Calm     98% 0in /  0.0mm
07:22 42.3 °F /  5.7 °C 42.8 °F /  6.0 °C 30.3in /  1024.9hPa Calm   1.1mph /  1.8km/h 98% 0in /  0.0mm
07:30 42.3 °F /  5.7 °C 42.8 °F /  6.0 °C 30.3in /  1024.9hPa NNW 2mph /  3.2km/h 2.2mph /  3.5km/h 98% 0in /  0.0mm
07:36 42.3 °F /  5.7 °C 42.8 °F /  6.0 °C 30.3in /  1024.9hPa NNW 1.1mph /  1.8km/h 2.5mph /  4.0km/h 98% 0in /  0.0mm
07:44 42.3 °F /  5.7 °C 42.8 °F /  6.0 °C 30.2in /  1023.9hPa Calm   2.5mph /  4.0km/h 98% 0in /  0.0mm
07:50 42.3 °F /  5.7 °C 42.8 °F /  6.0 °C 30.2in /  1023.9hPa Calm     98% 0in /  0.0mm
07:55 42.3 °F /  5.7 °C 42.8 °F /  6.0 °C 30.2in /  1023.9hPa Calm     98% 0in /  0.0mm
08:02 42.3 °F /  5.7 °C 42.8 °F /  6.0 °C 30.3in /  1024.9hPa Calm   0.9mph /  1.4km/h 98% 0in /  0.0mm
08:11 42.3 °F /  5.7 °C 42.8 °F /  6.0 °C 30.3in /  1024.9hPa Calm   0.9mph /  1.4km/h 98% 0in /  0.0mm
08:21 42.3 °F /  5.7 °C 42.8 °F /  6.0 °C 30.3in /  1024.9hPa Calm   1.3mph /  2.1km/h 98% 0in /  0.0mm
08:26 42.3 °F /  5.7 °C 42.8 °F /  6.0 °C 30.3in /  1024.9hPa Calm   4mph /  6.4km/h 98% 0in /  0.0mm
08:43 42.3 °F /  5.7 °C 42.8 °F /  6.0 °C 30.3in /  1024.9hPa WNW 2.5mph /  4.0km/h 4mph /  6.4km/h 98% 0in /  0.0mm
08:49 42.4 °F /  5.8 °C 42.8 °F /  6.0 °C 30.3in /  1024.9hPa North 2.2mph /  3.5km/h 4.7mph /  7.6km/h 98% 0in /  0.0mm
08:54 42.4 °F /  5.8 °C 42.8 °F /  6.0 °C 30.3in /  1024.9hPa Calm   2.5mph /  4.0km/h 98% 0in /  0.0mm
09:06 42.4 °F /  5.8 °C 42.8 °F /  6.0 °C 30.3in /  1024.9hPa WNW 2.7mph /  4.3km/h 4.3mph /  6.9km/h 98% 0in /  0.0mm
09:11 42.4 °F /  5.8 °C 42.8 °F /  6.0 °C 30.3in /  1024.9hPa Calm   4.3mph /  6.9km/h 98% 0in /  0.0mm
09:15 42.4 °F /  5.8 °C 42.8 °F /  6.0 °C 30.3in /  1024.9hPa NNW 2.5mph /  4.0km/h 4.3mph /  6.9km/h 98% 0in /  0.0mm
09:24 42.4 °F /  5.8 °C 42.8 °F /  6.0 °C 30.3in /  1024.9hPa NNW 2.9mph /  4.7km/h 4.7mph /  7.6km/h 98% 0in /  0.0mm
09:29 42.4 °F /  5.8 °C 42.8 °F /  6.0 °C 30.3in /  1024.9hPa NNW 6.3mph /  10.1km/h 6.3mph /  10.1km/h 98% 0in /  0.0mm
09:38 42.4 °F /  5.8 °C 42.8 °F /  6.0 °C 30.3in /  1024.9hPa Calm   6.3mph /  10.1km/h 98% 0in /  0.0mm
09:46 42.6 °F /  5.9 °C 42.8 °F /  6.0 °C 30.3in /  1026.0hPa Calm   5.4mph /  8.7km/h 98% 0in /  0.0mm
09:55 42.6 °F /  5.9 °C 42.8 °F /  6.0 °C 30.3in /  1026.0hPa North 1.6mph /  2.6km/h 5.4mph /  8.7km/h 98% 0in /  0.0mm
10:12 42.8 °F /  6.0 °C 42.8 °F /  6.0 °C 30.3in /  1026.0hPa NNE 3.8mph /  6.1km/h 4.3mph /  6.9km/h 98% 0in /  0.0mm
10:22 43 °F /  6.1 °C 42.8 °F /  6.0 °C 30.3in /  1026.0hPa Calm   4.3mph /  6.9km/h 98% 0in /  0.0mm
10:27 43.2 °F /  6.2 °C 42.8 °F /  6.0 °C 30.3in /  1026.0hPa Calm   0.9mph /  1.4km/h 98% 0in /  0.0mm
10:32 43.3 °F /  6.3 °C 42.8 °F /  6.0 °C 30.3in /  1026.0hPa Calm     98% 0in /  0.0mm
10:42 43.3 °F /  6.3 °C 42.8 °F /  6.0 °C 30.3in /  1026.0hPa Calm   2mph /  3.2km/h 98% 0in /  0.0mm
10:47 43.5 °F /  6.4 °C 42.8 °F /  6.0 °C 30.3in /  1026.0hPa Calm   2mph /  3.2km/h 98% 0in /  0.0mm
10:52 43.5 °F /  6.4 °C 42.8 °F /  6.0 °C 30.3in /  1026.0hPa Calm   2.2mph /  3.5km/h 98% 0in /  0.0mm
11:01 43.7 °F /  6.5 °C 44.6 °F /  7.0 °C 30.3in /  1026.0hPa Calm   2.5mph /  4.0km/h 98% 0in /  0.0mm
11:06 43.9 °F /  6.6 °C 44.6 °F /  7.0 °C 30.3in /  1026.0hPa Calm   4.3mph /  6.9km/h 98% 0in /  0.0mm
11:11 43.9 °F /  6.6 °C 44.6 °F /  7.0 °C 30.3in /  1026.0hPa NE 3.4mph /  5.5km/h 4.3mph /  6.9km/h 98% 0in /  0.0mm
11:18 44.1 °F /  6.7 °C 44.6 °F /  7.0 °C 30.3in /  1026.0hPa NE 2.2mph /  3.5km/h 4.7mph /  7.6km/h 98% 0in /  0.0mm
11:32 44.4 °F /  6.9 °C 44.6 °F /  7.0 °C 30.3in /  1026.0hPa NE 0.9mph /  1.4km/h 2.9mph /  4.7km/h 98% 0in /  0.0mm
11:38 44.6 °F /  7.0 °C 44.6 °F /  7.0 °C 30.3in /  1026.0hPa Calm   2.9mph /  4.7km/h 98% 0in /  0.0mm
11:46 45 °F /  7.2 °C 44.6 °F /  7.0 °C 30.3in /  1026.0hPa NNE 4.3mph /  6.9km/h 4.9mph /  7.9km/h 98% 0in /  0.0mm
11:53 45.1 °F /  7.3 °C 44.6 °F /  7.0 °C 30.3in /  1026.0hPa Calm   4.7mph /  7.6km/h 98% 0in /  0.0mm
12:05 45.1 °F /  7.3 °C 44.6 °F /  7.0 °C 30.3in /  1026.0hPa Calm   4.7mph /  7.6km/h 98% 0in /  0.0mm
12:10 45.3 °F /  7.4 °C 44.6 °F /  7.0 °C 30.3in /  1026.0hPa NNE 4.3mph /  6.9km/h 4.3mph /  6.9km/h 98% 0in /  0.0mm
12:15 45.3 °F /  7.4 °C 44.6 °F /  7.0 °C 30.3in /  1026.0hPa NNE 4mph /  6.4km/h 5.8mph /  9.3km/h 98% 0in /  0.0mm
12:25 45.9 °F /  7.7 °C 46.4 °F /  8.0 °C 30.3in /  1026.0hPa NNE 2mph /  3.2km/h 4.7mph /  7.6km/h 98% 0in /  0.0mm
12:30 45.9 °F /  7.7 °C 46.4 °F /  8.0 °C 30.3in /  1026.0hPa North 3.6mph /  5.8km/h 3.8mph /  6.1km/h 98% 0in /  0.0mm
12:39 46 °F /  7.8 °C 46.4 °F /  8.0 °C 30.3in /  1026.0hPa NNE 3.6mph /  5.8km/h 4.9mph /  7.9km/h 98% 0in /  0.0mm
12:44 46 °F /  7.8 °C 46.4 °F /  8.0 °C 30.3in /  1024.9hPa Calm   4.9mph /  7.9km/h 98% 0in /  0.0mm
12:51 46 °F /  7.8 °C 46.4 °F /  8.0 °C 30.3in /  1024.9hPa Calm   4.5mph /  7.2km/h 98% 0in /  0.0mm
12:56 46.2 °F /  7.9 °C 46.4 °F /  8.0 °C 30.3in /  1026.0hPa Calm   2.5mph /  4.0km/h 98% 0in /  0.0mm
13:02 46.2 °F /  7.9 °C 46.4 °F /  8.0 °C 30.3in /  1026.0hPa Calm   2.5mph /  4.0km/h 98% 0in /  0.0mm
13:07 46.6 °F /  8.1 °C 46.4 °F /  8.0 °C 30.3in /  1026.0hPa Calm   3.1mph /  5.0km/h 98% 0in /  0.0mm
13:12 46.9 °F /  8.3 °C 48.2 °F /  9.0 °C 30.3in /  1024.9hPa Calm   3.1mph /  5.0km/h 98% 0in /  0.0mm
13:17 46.9 °F /  8.3 °C 48.2 °F /  9.0 °C 30.3in /  1024.9hPa Calm   2.7mph /  4.3km/h 98% 0in /  0.0mm
13:35 47.8 °F /  8.8 °C 48.2 °F /  9.0 °C 30.3in /  1024.9hPa Calm   4.3mph /  6.9km/h 98% 0in /  0.0mm
13:52 47.8 °F /  8.8 °C 48.2 °F /  9.0 °C 30.2in /  1023.9hPa Calm   4.3mph /  6.9km/h 98% 0in /  0.0mm
13:58 47.5 °F /  8.6 °C 48.2 °F /  9.0 °C 30.3in /  1024.9hPa NNE 3.8mph /  6.1km/h 6mph /  9.7km/h 98% 0in /  0.0mm
14:03 47.3 °F /  8.5 °C 48.2 °F /  9.0 °C 30.3in /  1024.9hPa Calm   6mph /  9.7km/h 98% 0in /  0.0mm
14:08 47.1 °F /  8.4 °C 48.2 °F /  9.0 °C 30.3in /  1024.9hPa Calm   5.4mph /  8.7km/h 98% 0in /  0.0mm
14:13 47.1 °F /  8.4 °C 48.2 °F /  9.0 °C 30.3in /  1024.9hPa Calm   3.1mph /  5.0km/h 98% 0in /  0.0mm
14:21 47.1 °F /  8.4 °C 48.2 °F /  9.0 °C 30.3in /  1024.9hPa East 1.1mph /  1.8km/h 2.2mph /  3.5km/h 98% 0in /  0.0mm
14:26 47.1 °F /  8.4 °C 48.2 °F /  9.0 °C 30.3in /  1024.9hPa Calm   2.2mph /  3.5km/h 98% 0in /  0.0mm
14:42 47.1 °F /  8.4 °C 48.2 °F /  9.0 °C 30.3in /  1024.9hPa Calm   3.6mph /  5.8km/h 98% 0in /  0.0mm
15:14 46.9 °F /  8.3 °C 48.2 °F /  9.0 °C 30.3in /  1024.9hPa Calm   3.4mph /  5.5km/h 98% 0in /  0.0mm
15:21 46.9 °F /  8.3 °C 48.2 °F /  9.0 °C 30.3in /  1024.9hPa Calm     98% 0in /  0.0mm
15:30 46.9 °F /  8.3 °C 48.2 °F /  9.0 °C 30.2in /  1023.9hPa Calm   1.1mph /  1.8km/h 98% 0in /  0.0mm
15:33 46.9 °F /  8.3 °C 48.2 °F /  9.0 °C 30.2in /  1023.9hPa Calm   1.1mph /  1.8km/h 98% 0in /  0.0mm
15:46 46.9 °F /  8.3 °C 48.2 °F /  9.0 °C 30.3in /  1024.9hPa Calm     98% 0in /  0.0mm
16:11 46.8 °F /  8.2 °C 46.4 °F /  8.0 °C 30.2in /  1023.9hPa Calm     98% 0in /  0.0mm
16:20 46.6 °F /  8.1 °C 46.4 °F /  8.0 °C 30.2in /  1023.9hPa Calm   1.3mph /  2.1km/h 98% 0in /  0.0mm
16:26 46.6 °F /  8.1 °C 46.4 °F /  8.0 °C 30.3in /  1024.9hPa Calm     98% 0in /  0.0mm
16:37 46.4 °F /  8.0 °C 46.4 °F /  8.0 °C 30.3in /  1024.9hPa Calm   0.9mph /  1.4km/h 98% 0in /  0.0mm
16:49 46 °F /  7.8 °C 46.4 °F /  8.0 °C 30.2in /  1023.9hPa Calm   0.9mph /  1.4km/h 98% 0in /  0.0mm
16:57 46 °F /  7.8 °C 46.4 °F /  8.0 °C 30.2in /  1023.9hPa Calm   2mph /  3.2km/h 98% 0in /  0.0mm
17:04 45.9 °F /  7.7 °C 46.4 °F /  8.0 °C 30.2in /  1023.9hPa Calm     98% 0in /  0.0mm
17:11 45.9 °F /  7.7 °C 46.4 °F /  8.0 °C 30.2in /  1023.9hPa Calm   1.3mph /  2.1km/h 98% 0in /  0.0mm
17:21 45.7 °F /  7.6 °C 46.4 °F /  8.0 °C 30.2in /  1023.9hPa Calm   0.9mph /  1.4km/h 98% 0in /  0.0mm
17:39 45.3 °F /  7.4 °C 44.6 °F /  7.0 °C 30.3in /  1024.9hPa Calm   2.5mph /  4.0km/h 98% 0in /  0.0mm
17:48 45.3 °F /  7.4 °C 44.6 °F /  7.0 °C 30.3in /  1024.9hPa Calm   2.2mph /  3.5km/h 98% 0in /  0.0mm
17:54 45.3 °F /  7.4 °C 44.6 °F /  7.0 °C 30.3in /  1024.9hPa Calm   2.2mph /  3.5km/h 98% 0in /  0.0mm
18:03 45.1 °F /  7.3 °C 44.6 °F /  7.0 °C 30.3in /  1024.9hPa Calm     98% 0in /  0.0mm
18:08 45.1 °F /  7.3 °C 44.6 °F /  7.0 °C 30.3in /  1024.9hPa Calm     98% 0in /  0.0mm
18:14 45.1 °F /  7.3 °C 44.6 °F /  7.0 °C 30.3in /  1024.9hPa Calm     98% 0in /  0.0mm
18:27 45.1 °F /  7.3 °C 44.6 °F /  7.0 °C 30.3in /  1024.9hPa Calm     98% 0in /  0.0mm
18:37 44.8 °F /  7.1 °C 44.6 °F /  7.0 °C 30.3in /  1024.9hPa Calm     98% 0in /  0.0mm
19:06 44.2 °F /  6.8 °C 44.6 °F /  7.0 °C 30.2in /  1023.9hPa Calm     98% 0in /  0.0mm
19:15 44.1 °F /  6.7 °C 44.6 °F /  7.0 °C 30.3in /  1024.9hPa Calm     98% 0in /  0.0mm
19:35 43.7 °F /  6.5 °C 44.6 °F /  7.0 °C 30.2in /  1023.9hPa Calm     98% 0in /  0.0mm
19:41 43.7 °F /  6.5 °C 44.6 °F /  7.0 °C 30.3in /  1026.0hPa Calm     98% 0in /  0.0mm
19:47 43.7 °F /  6.5 °C 44.6 °F /  7.0 °C 30.3in /  1026.0hPa Calm     98% 0in /  0.0mm
19:52 43.7 °F /  6.5 °C 44.6 °F /  7.0 °C 30.3in /  1026.0hPa Calm     98% 0in /  0.0mm
20:02 43.7 °F /  6.5 °C 44.6 °F /  7.0 °C 30.3in /  1024.9hPa Calm     98% 0in /  0.0mm
20:13 43.5 °F /  6.4 °C 42.8 °F /  6.0 °C 30.3in /  1024.9hPa Calm     98% 0in /  0.0mm
20:20 43.3 °F /  6.3 °C 42.8 °F /  6.0 °C 30.3in /  1024.9hPa Calm   0.9mph /  1.4km/h 98% 0in /  0.0mm
20:44 43 °F /  6.1 °C 42.8 °F /  6.0 °C 30.3in /  1024.9hPa Calm   2mph /  3.2km/h 98% 0in /  0.0mm
20:54 43 °F /  6.1 °C 42.8 °F /  6.0 °C 30.3in /  1024.9hPa Calm   2.9mph /  4.7km/h 98% 0in /  0.0mm
21:01 43 °F /  6.1 °C 42.8 °F /  6.0 °C 30.3in /  1024.9hPa ESE 1.6mph /  2.6km/h 4.3mph /  6.9km/h 98% 0in /  0.0mm
21:07 43 °F /  6.1 °C 42.8 °F /  6.0 °C 30.3in /  1024.9hPa Calm   2.9mph /  4.7km/h 98% 0in /  0.0mm
21:15 43.2 °F /  6.2 °C 42.8 °F /  6.0 °C 30.3in /  1024.9hPa Calm   3.1mph /  5.0km/h 98% 0in /  0.0mm
21:25 43.2 °F /  6.2 °C 42.8 °F /  6.0 °C 30.3in /  1024.9hPa Calm   3.1mph /  5.0km/h 98% 0in /  0.0mm
21:35 43.2 °F /  6.2 °C 42.8 °F /  6.0 °C 30.3in /  1024.9hPa Calm   2.9mph /  4.7km/h 98% 0in /  0.0mm
21:40 43.2 °F /  6.2 °C 42.8 °F /  6.0 °C 30.3in /  1024.9hPa Calm     98% 0in /  0.0mm
21:45 43.2 °F /  6.2 °C 42.8 °F /  6.0 °C 30.3in /  1024.9hPa Calm   3.6mph /  5.8km/h 98% 0in /  0.0mm
22:07 43 °F /  6.1 °C 42.8 °F /  6.0 °C 30.3in /  1024.9hPa Calm     98% 0in /  0.0mm
22:15 43 °F /  6.1 °C 42.8 °F /  6.0 °C 30.2in /  1023.9hPa Calm     98% 0in /  0.0mm
22:25 41.2 °F /  5.1 °C 41 °F /  5.0 °C 30.2in /  1023.9hPa Calm     98% 0in /  0.0mm
22:37 41.2 °F /  5.1 °C 41 °F /  5.0 °C 30.3in /  1024.9hPa Calm     98% 0in /  0.0mm
23:01 41.2 °F /  5.1 °C 41 °F /  5.0 °C 30.3in /  1024.9hPa Calm     98% 0in /  0.0mm
23:06 41.2 °F /  5.1 °C 41 °F /  5.0 °C 30.3in /  1024.9hPa Calm     98% 0in /  0.0mm
23:16 41.2 °F /  5.1 °C 41 °F /  5.0 °C 30.3in /  1024.9hPa Calm     98% 0in /  0.0mm
23:21 41.2 °F /  5.1 °C 41 °F /  5.0 °C 30.3in /  1024.9hPa Calm     98% 0in /  0.0mm
23:28 41.2 °F /  5.1 °C 41 °F /  5.0 °C 30.3in /  1024.9hPa Calm     98% 0in /  0.0mm
Données Historique de Météo Turbie

Mise a jour : 26/05/2018 15:54:13
Généré par Cumulus 1.9.4 (1099)